Shell Lake, Canada
Current Conditions -  °F | °C
As of 9:00 PM on Sunday 21 Dec 2014 (Local Time) from CYPA Reporting Station
Haze Haze  
Wind Chill: -10°   Ceiling: 300
Heat Index: -5°   Visibility: 3mi
Dew Point: -5°   Wind: 7mph
Humidity: 100%   Direction: 80°E
Pressure: 29.54"   Gusts: NA
Location:  53.3°N, 107.05°W
Report Text: CYPA 220300Z 08006KT 3SM BR OVC003 M05/M05 A2954 RMK ST8 SLP031
Loading
Personal Weather Stations






























Interactive Weather Map New forecast layout! Learn more

10-Day Weather Forecast

Advertisements
Track Severe Weather on mobile